Time;durP1;ratioP1;P1;durP2;ratioP2;P2;SDS_P1;SDS_P2;PMS_P1;PMS_P2;Temp;Humidity;BMP_temperature;BMP_pressure;BME280_temperature;BME280_humidity;BME280_pressure;Samples;Min_cycle;Max_cycle;Signal;HPM_P1;HPM_P2
2022/07/16 00:01:25;;;;;;;;;;;;;;;15.65;51.57;96915.03;4956634;28;19977;-73
2022/07/16 00:03:52;;;;;;;;;;;;;;;15.60;51.69;96911.25;4958862;29;20351;-74
2022/07/16 00:06:18;;;;;;;;;;;;;;;15.54;51.93;96912.22;4958829;29;20011;-73
2022/07/16 00:08:44;;;;;;;;;;;;;;;15.49;52.07;96908.66;4958778;29;20426;-73
2022/07/16 00:11:10;;;;;;;;;;;;;;;15.43;52.26;96913.88;4958725;29;20343;-73
2022/07/16 00:13:36;;;;;;;;;;;;;;;15.40;52.17;96913.53;4958544;29;19961;-73
2022/07/16 00:16:02;;;;;;;;;;;;;;;15.37;52.43;96916.63;4958461;29;19960;-73
2022/07/16 00:21:12;;;;;;;;;;;;;;;15.32;51.86;96911.28;4947977;29;20384;-73
2022/07/16 00:23:38;;;;;;;;;;;;;;;15.32;51.85;96916.56;4958503;29;20053;-73
2022/07/16 00:26:04;;;;;;;;;;;;;;;15.32;51.48;96911.28;4958432;29;20001;-72
2022/07/16 00:28:30;;;;;;;;;;;;;;;15.31;51.71;96914.97;4958546;29;19963;-73
2022/07/16 00:30:55;;;;;;;;;;;;;;;15.30;51.88;96908.84;4958473;29;20334;-73
2022/07/16 00:33:21;;;;;;;;;;;;;;;15.28;51.97;96908.28;4958658;29;20045;-73
2022/07/16 00:35:47;;;;;;;;;;;;;;;15.26;52.36;96920.13;4958242;29;20359;-73
2022/07/16 00:38:13;;;;;;;;;;;;;;;15.22;52.53;96915.34;4958378;29;20085;-73
2022/07/16 00:40:39;;;;;;;;;;;;;;;15.20;51.95;96912.13;4958052;29;20396;-73
2022/07/16 00:43:09;;;;;;;;;;;;;;;15.17;52.14;96917.88;4958073;29;19956;-73
2022/07/16 00:45:35;;;;;;;;;;;;;;;15.13;51.22;96908.81;4958416;29;19973;-73
2022/07/16 00:48:00;;;;;;;;;;;;;;;15.13;52.15;96919.38;4958557;29;19955;-73
2022/07/16 00:50:26;;;;;;;;;;;;;;;15.14;51.80;96915.72;4958330;29;20035;-73
2022/07/16 00:52:52;;;;;;;;;;;;;;;15.15;51.87;96921.78;4958188;29;20056;-73
2022/07/16 00:55:18;;;;;;;;;;;;;;;15.14;51.48;96917.53;4957752;29;19985;-73
2022/07/16 00:57:44;;;;;;;;;;;;;;;15.14;51.94;96918.34;4957965;29;19956;-73
2022/07/16 01:00:10;;;;;;;;;;;;;;;15.12;51.80;96915.16;4957953;29;20006;-73
2022/07/16 01:02:36;;;;;;;;;;;;;;;15.09;51.93;96915.59;4957866;29;20342;-72
2022/07/16 01:05:02;;;;;;;;;;;;;;;15.08;51.56;96914.00;4957647;29;19963;-73
2022/07/16 01:07:28;;;;;;;;;;;;;;;15.04;52.00;96915.50;4956560;29;19959;-73
2022/07/16 01:09:55;;;;;;;;;;;;;;;15.00;51.23;96915.16;4957527;29;19979;-74
2022/07/16 01:12:21;;;;;;;;;;;;;;;14.98;51.62;96911.16;4957682;28;19952;-73
2022/07/16 01:14:47;;;;;;;;;;;;;;;14.96;51.23;96914.03;4957506;29;19970;-73
2022/07/16 01:17:13;;;;;;;;;;;;;;;14.94;51.71;96902.09;4957573;29;19955;-73
2022/07/16 01:19:39;;;;;;;;;;;;;;;14.92;51.55;96910.25;4957290;29;19962;-73
2022/07/16 01:22:05;;;;;;;;;;;;;;;14.90;51.71;96914.97;4957359;29;19993;-73
2022/07/16 01:24:31;;;;;;;;;;;;;;;14.87;51.96;96909.38;4957522;29;20410;-72
2022/07/16 01:26:57;;;;;;;;;;;;;;;14.84;52.06;96905.34;4957542;29;19961;-73
2022/07/16 01:29:22;;;;;;;;;;;;;;;14.82;52.27;96910.88;4957200;29;20297;-73
2022/07/16 01:31:48;;;;;;;;;;;;;;;14.80;52.32;96912.94;4957339;29;19957;-73
2022/07/16 01:34:26;;;;;;;;;;;;;;;14.77;52.66;96910.75;4957378;29;20336;-73
2022/07/16 01:37:03;;;;;;;;;;;;;;;14.73;52.84;96906.97;4957323;29;20331;-73
2022/07/16 01:39:30;;;;;;;;;;;;;;;14.71;52.47;96910.88;4957392;29;20404;-73
2022/07/16 01:41:57;;;;;;;;;;;;;;;14.66;52.90;96908.94;4957111;29;19982;-74
2022/07/16 01:44:24;;;;;;;;;;;;;;;14.65;52.35;96909.16;4956946;29;20314;-73
2022/07/16 01:46:54;;;;;;;;;;;;;;;14.63;52.32;96901.47;4957140;29;19959;-74
2022/07/16 01:49:20;;;;;;;;;;;;;;;14.63;52.52;96911.25;4956962;29;19955;-74
2022/07/16 01:51:46;;;;;;;;;;;;;;;14.60;52.46;96908.03;4956884;29;19966;-73
2022/07/16 01:54:12;;;;;;;;;;;;;;;14.59;52.81;96913.53;4956672;29;20324;-72
2022/07/16 01:56:38;;;;;;;;;;;;;;;14.61;53.88;96922.84;4956861;29;20428;-73
2022/07/16 01:59:04;;;;;;;;;;;;;;;14.64;52.61;96910.22;4957090;29;19954;-73
2022/07/16 02:01:30;;;;;;;;;;;;;;;14.63;52.35;96905.97;4956715;29;20004;-73
2022/07/16 02:03:56;;;;;;;;;;;;;;;14.61;52.56;96907.00;4956641;29;20005;-73
2022/07/16 02:06:23;;;;;;;;;;;;;;;14.61;52.49;96908.81;4956793;29;20417;-72
2022/07/16 02:08:49;;;;;;;;;;;;;;;14.63;52.16;96905.97;4956536;29;20003;-73
2022/07/16 02:11:15;;;;;;;;;;;;;;;14.64;52.48;96908.38;4957055;29;20401;-73
2022/07/16 02:13:42;;;;;;;;;;;;;;;14.63;52.13;96903.31;4956627;29;19959;-73
2022/07/16 02:16:08;;;;;;;;;;;;;;;14.63;52.02;96908.59;4956559;29;20305;-73
2022/07/16 02:18:35;;;;;;;;;;;;;;;14.63;52.44;96908.59;4956159;28;19958;-73
2022/07/16 02:21:01;;;;;;;;;;;;;;;14.61;51.96;96901.72;4956080;29;19980;-73
2022/07/16 02:23:27;;;;;;;;;;;;;;;14.59;52.01;96906.44;4955721;28;19977;-74
2022/07/16 02:25:53;;;;;;;;;;;;;;;14.58;51.93;96902.19;4956470;29;19963;-73
2022/07/16 02:28:19;;;;;;;;;;;;;;;14.58;51.68;96904.81;4956100;29;19966;-73
2022/07/16 02:30:46;;;;;;;;;;;;;;;14.59;52.07;96910.88;4956334;29;20023;-73
2022/07/16 02:33:13;;;;;;;;;;;;;;;14.59;51.79;96903.78;4956078;29;19959;-73
2022/07/16 02:35:39;;;;;;;;;;;;;;;14.57;51.54;96903.22;4954992;29;19956;-74
2022/07/16 02:38:06;;;;;;;;;;;;;;;14.56;51.68;96909.53;4956154;29;19977;-73
2022/07/16 02:40:34;;;;;;;;;;;;;;;14.56;51.69;96909.53;4955953;29;19955;-74
2022/07/16 02:43:01;;;;;;;;;;;;;;;14.57;51.31;96905.88;4955870;29;19980;-73
2022/07/16 02:45:27;;;;;;;;;;;;;;;14.58;51.32;96906.66;4955934;29;19952;-74
2022/07/16 02:47:53;;;;;;;;;;;;;;;14.57;51.52;96903.22;4955706;29;19955;-73
2022/07/16 02:50:19;;;;;;;;;;;;;;;14.58;51.47;96904.81;4955987;29;20097;-73
2022/07/16 02:52:46;;;;;;;;;;;;;;;14.58;51.58;96904.03;4955917;29;19962;-73
2022/07/16 02:55:11;;;;;;;;;;;;;;;14.55;51.90;96905.28;4955648;29;20328;-73
2022/07/16 02:57:37;;;;;;;;;;;;;;;14.54;52.06;96916.03;4955845;28;19968;-73
2022/07/16 03:00:04;;;;;;;;;;;;;;;14.50;51.82;96917.53;4955761;29;19965;-74
2022/07/16 03:02:30;;;;;;;;;;;;;;;14.46;52.26;96922.47;4955544;29;19976;-73
2022/07/16 03:04:56;;;;;;;;;;;;;;;14.39;52.63;96917.31;4955956;29;20354;-74
2022/07/16 03:07:22;;;;;;;;;;;;;;;14.35;52.83;96918.81;4955697;29;19963;-74
2022/07/16 03:09:48;;;;;;;;;;;;;;;14.31;53.25;96924.78;4956094;29;20050;-73
2022/07/16 03:12:14;;;;;;;;;;;;;;;14.23;53.81;96922.47;4955626;29;19965;-73
2022/07/16 03:14:40;;;;;;;;;;;;;;;14.16;53.99;96927.88;4955690;29;19961;-74
2022/07/16 03:17:06;;;;;;;;;;;;;;;14.12;53.90;96930.16;4955443;29;20025;-73
2022/07/16 03:19:32;;;;;;;;;;;;;;;14.09;53.48;96930.63;4955708;29;19995;-73
2022/07/16 03:21:57;;;;;;;;;;;;;;;14.08;53.52;96928.19;4954781;29;19985;-73
2022/07/16 03:24:23;;;;;;;;;;;;;;;14.04;53.70;96925.22;4955150;29;20017;-73
2022/07/16 03:26:49;;;;;;;;;;;;;;;14.03;53.46;96926.25;4954732;29;20481;-73
2022/07/16 03:29:15;;;;;;;;;;;;;;;14.01;53.40;96923.84;4954581;29;20384;-73
2022/07/16 03:31:41;;;;;;;;;;;;;;;13.96;54.21;96923.72;4954499;29;19968;-73
2022/07/16 03:34:07;;;;;;;;;;;;;;;13.91;54.11;96933.34;4954687;29;20000;-73
2022/07/16 03:36:33;;;;;;;;;;;;;;;13.89;54.13;96928.28;4956442;28;20027;-74
2022/07/16 03:39:04;;;;;;;;;;;;;;;13.86;54.67;96941.09;4958423;29;19969;-73
2022/07/16 03:41:39;;;;;;;;;;;;;;;13.80;55.18;96935.72;4958110;29;20352;-74
2022/07/16 03:44:06;;;;;;;;;;;;;;;13.76;55.16;96936.41;4958184;29;19964;-73
2022/07/16 03:46:32;;;;;;;;;;;;;;;13.72;55.23;96932.63;4958002;29;19977;-73
2022/07/16 03:48:58;;;;;;;;;;;;;;;13.69;55.22;96933.06;4958408;29;20053;-73
2022/07/16 03:51:24;;;;;;;;;;;;;;;13.68;55.75;96939.38;4957806;29;20157;-73
2022/07/16 03:53:50;;;;;;;;;;;;;;;13.69;55.99;96941.78;4957729;29;19970;-74
2022/07/16 03:56:16;;;;;;;;;;;;;;;13.75;56.04;96948.78;4957786;29;20492;-73
2022/07/16 03:58:42;;;;;;;;;;;;;;;13.81;56.44;96950.50;4957533;29;19963;-73
2022/07/16 04:01:08;;;;;;;;;;;;;;;13.89;56.23;96945.94;4957760;29;19963;-73
2022/07/16 04:03:35;;;;;;;;;;;;;;;13.94;56.36;96944.25;4957469;29;19978;-73
2022/07/16 04:06:02;;;;;;;;;;;;;;;14.01;56.72;96950.22;4957740;29;19961;-72
2022/07/16 04:08:28;;;;;;;;;;;;;;;14.08;56.67;96958.00;4957502;29;20333;-73
2022/07/16 04:10:54;;;;;;;;;;;;;;;14.14;56.48;96951.03;4957512;29;19970;-74
2022/07/16 04:13:20;;;;;;;;;;;;;;;14.17;56.50;96953.19;4957508;29;19959;-73
2022/07/16 04:15:46;;;;;;;;;;;;;;;14.18;56.24;96952.19;4957183;29;20006;-74
2022/07/16 04:18:12;;;;;;;;;;;;;;;14.18;56.06;96955.63;4957480;29;20054;-73
2022/07/16 04:20:38;;;;;;;;;;;;;;;14.18;56.52;96960.91;4895378;28;1802313;-73
2022/07/16 04:23:04;;;;;;;;;;;;;;;14.20;56.35;96958.03;4958310;29;20451;-73
2022/07/16 04:25:29;;;;;;;;;;;;;;;14.20;56.26;96950.13;4958397;29;20039;-74
2022/07/16 04:27:55;;;;;;;;;;;;;;;14.25;56.54;96959.97;4957567;29;19986;-73
2022/07/16 04:30:21;;;;;;;;;;;;;;;14.30;56.27;96965.38;4958537;29;19989;-73
2022/07/16 04:32:47;;;;;;;;;;;;;;;14.36;56.21;96967.91;4958282;29;20324;-73
2022/07/16 04:35:13;;;;;;;;;;;;;;;14.43;56.23;96961.72;4958769;29;20015;-73
2022/07/16 04:37:39;;;;;;;;;;;;;;;14.50;56.32;96962.41;4958162;29;19951;-73
2022/07/16 04:40:06;;;;;;;;;;;;;;;14.57;56.08;96974.50;4958236;29;20324;-73
2022/07/16 04:42:32;;;;;;;;;;;;;;;14.64;55.91;96968.28;4956972;29;19985;-73
2022/07/16 04:44:58;;;;;;;;;;;;;;;14.73;55.93;96969.53;4958391;29;19963;-74
2022/07/16 04:47:24;;;;;;;;;;;;;;;14.84;55.76;96967.91;4957048;28;19962;-74
2022/07/16 04:49:50;;;;;;;;;;;;;;;14.93;55.03;96972.63;4958215;29;20400;-73
2022/07/16 04:52:16;;;;;;;;;;;;;;;14.99;54.72;96965.56;4958224;29;19968;-73
2022/07/16 04:54:42;;;;;;;;;;;;;;;15.03;54.75;96966.72;4958007;29;19958;-74
2022/07/16 04:57:08;;;;;;;;;;;;;;;15.09;54.85;96972.91;4958587;29;20480;-73
2022/07/16 04:59:33;;;;;;;;;;;;;;;15.16;54.61;96971.75;4956571;29;20040;-74
2022/07/16 05:04:44;;;;;;;;;;;;;;;15.42;54.52;96969.59;4948912;29;19966;-73
2022/07/16 05:07:10;;;;;;;;;;;;;;;15.57;54.61;96972.53;4957569;29;19984;-74
2022/07/16 05:09:36;;;;;;;;;;;;;;;15.75;53.66;96973.41;4957929;29;19973;-74
2022/07/16 05:12:02;;;;;;;;;;;;;;;15.94;53.53;96958.13;4957604;29;19966;-74
2022/07/16 05:14:28;;;;;;;;;;;;;;;16.16;53.45;96960.84;4956394;29;19968;-74
2022/07/16 05:16:55;;;;;;;;;;;;;;;16.36;53.34;96955.88;4957849;29;20008;-73
2022/07/16 05:19:21;;;;;;;;;;;;;;;16.61;52.69;96957.31;4957429;29;19967;-73
2022/07/16 05:21:47;;;;;;;;;;;;;;;16.88;52.59;96954.75;4957014;29;19991;-73
2022/07/16 05:24:12;;;;;;;;;;;;;;;17.15;52.07;96954.81;4957449;29;19998;-73
2022/07/16 05:26:38;;;;;;;;;;;;;;;17.43;50.70;96942.44;4957491;29;20299;-73
2022/07/16 05:29:04;;;;;;;;;;;;;;;17.69;49.59;96943.47;4957270;29;19962;-73
2022/07/16 05:31:30;;;;;;;;;;;;;;;17.93;49.10;96943.19;4957404;29;19965;-74
2022/07/16 05:33:56;;;;;;;;;;;;;;;18.11;48.18;96934.84;4957229;29;19969;-73
2022/07/16 05:36:22;;;;;;;;;;;;;;;18.23;46.70;96934.66;4957534;29;20407;-73
2022/07/16 05:38:48;;;;;;;;;;;;;;;18.36;45.97;96936.09;4957410;29;19960;-73
2022/07/16 05:41:13;;;;;;;;;;;;;;;18.48;46.48;96936.69;4957037;29;20004;-73
2022/07/16 05:43:39;;;;;;;;;;;;;;;18.69;46.65;96942.09;4956980;29;20941;-74
2022/07/16 05:46:05;;;;;;;;;;;;;;;18.83;46.03;96933.44;4957097;29;20058;-74
2022/07/16 05:48:31;;;;;;;;;;;;;;;18.95;45.54;96930.59;4957244;29;20410;-73
2022/07/16 05:50:57;;;;;;;;;;;;;;;19.10;45.28;96929.03;4957126;29;19970;-73
2022/07/16 05:53:23;;;;;;;;;;;;;;;19.32;44.80;96927.00;4956993;29;19973;-74
2022/07/16 05:55:49;;;;;;;;;;;;;;;19.60;45.02;96931.03;4956726;29;19992;-74
2022/07/16 05:58:14;;;;;;;;;;;;;;;19.86;44.16;96929.25;4954352;28;19969;-74
2022/07/16 06:00:40;;;;;;;;;;;;;;;20.11;43.49;96921.50;4956880;29;20051;-74
2022/07/16 06:03:07;;;;;;;;;;;;;;;20.36;43.20;96926.03;4955385;29;20045;-74
2022/07/16 06:05:33;;;;;;;;;;;;;;;20.62;43.00;96924.13;4955281;29;20342;-75
2022/07/16 06:07:59;;;;;;;;;;;;;;;20.64;41.13;96925.47;4956306;29;19970;-74
2022/07/16 06:10:25;;;;;;;;;;;;;;;20.74;42.56;96929.16;4956593;29;20377;-74
2022/07/16 06:12:51;;;;;;;;;;;;;;;20.98;41.45;96926.69;4956272;28;20050;-74
2022/07/16 06:15:17;;;;;;;;;;;;;;;21.04;42.11;96923.72;4956556;29;20015;-75
2022/07/16 06:17:43;;;;;;;;;;;;;;;21.19;42.21;96927.41;4955355;29;19979;-75
2022/07/16 06:20:09;;;;;;;;;;;;;;;21.33;41.54;96931.03;4956492;29;20082;-75
2022/07/16 06:22:35;;;;;;;;;;;;;;;21.43;40.03;96922.22;4956254;29;20001;-73
2022/07/16 06:25:02;;;;;;;;;;;;;;;21.35;40.09;96934.25;4956357;29;19968;-73
2022/07/16 06:27:28;;;;;;;;;;;;;;;21.25;40.03;96935.09;4956249;29;19954;-74
2022/07/16 06:29:54;;;;;;;;;;;;;;;21.17;40.15;96940.22;4956333;29;19963;-73
2022/07/16 06:32:20;;;;;;;;;;;;;;;21.08;38.62;96938.13;4956092;29;19962;-73
2022/07/16 06:34:46;;;;;;;;;;;;;;;21.07;39.68;96941.84;4956144;29;20028;-74
2022/07/16 06:37:12;;;;;;;;;;;;;;;20.99;40.58;96942.41;4956002;29;20008;-73
2022/07/16 06:39:40;;;;;;;;;;;;;;;21.09;40.60;96936.25;4956124;29;20060;-73
2022/07/16 06:42:06;;;;;;;;;;;;;;;21.18;40.03;96939.94;4956116;29;20467;-73
2022/07/16 06:44:32;;;;;;;;;;;;;;;21.26;40.50;96943.91;4956072;29;19960;-73
2022/07/16 06:46:58;;;;;;;;;;;;;;;21.24;41.11;96954.03;4956001;29;20383;-74
2022/07/16 06:49:24;;;;;;;;;;;;;;;21.37;41.76;96964.09;4955923;29;20051;-73
2022/07/16 06:51:49;;;;;;;;;;;;;;;21.58;41.09;96958.69;4955870;29;19962;-73
2022/07/16 06:54:15;;;;;;;;;;;;;;;21.69;41.48;96958.38;4956044;29;19974;-73
2022/07/16 06:56:41;;;;;;;;;;;;;;;21.86;39.79;96949.19;4956089;29;20388;-73
2022/07/16 06:59:07;;;;;;;;;;;;;;;21.96;39.94;96942.97;4955702;29;19961;-72
2022/07/16 07:01:33;;;;;;;;;;;;;;;22.04;40.29;96948.50;4956046;29;19960;-73
2022/07/16 07:03:59;;;;;;;;;;;;;;;22.08;40.16;96943.41;4955490;29;20313;-73
2022/07/16 07:06:25;;;;;;;;;;;;;;;22.27;39.95;96951.56;4955726;29;19968;-73
2022/07/16 07:08:50;;;;;;;;;;;;;;;22.42;39.42;96950.63;4955615;29;19959;-73
2022/07/16 07:11:16;;;;;;;;;;;;;;;22.31;40.82;96959.81;4955901;28;20047;-73
2022/07/16 07:13:42;;;;;;;;;;;;;;;22.17;40.08;96959.63;4955497;29;20380;-73
2022/07/16 07:16:08;;;;;;;;;;;;;;;22.16;39.81;96958.84;4955479;29;20023;-74
2022/07/16 07:18:34;;;;;;;;;;;;;;;22.12;39.94;96952.47;4945629;29;19965;-73
2022/07/16 07:21:00;;;;;;;;;;;;;;;22.00;39.03;96946.66;4955357;29;19984;-74
2022/07/16 07:23:27;;;;;;;;;;;;;;;22.07;40.20;96953.31;4955450;29;20001;-73
2022/07/16 07:25:52;;;;;;;;;;;;;;;22.32;40.02;96956.06;4955599;29;19961;-73
2022/07/16 07:28:18;;;;;;;;;;;;;;;22.47;39.27;96954.06;4955335;29;20055;-73
2022/07/16 07:30:44;;;;;;;;;;;;;;;22.67;39.43;96958.38;4955230;29;19969;-73
2022/07/16 07:33:10;;;;;;;;;;;;;;;22.89;38.51;96951.75;4955008;29;19959;-74
2022/07/16 07:35:36;;;;;;;;;;;;;;;22.94;37.35;96942.88;4955772;29;19965;-74
2022/07/16 07:38:02;;;;;;;;;;;;;;;22.79;37.37;96952.66;4955302;29;19991;-73
2022/07/16 07:40:28;;;;;;;;;;;;;;;22.92;36.56;96947.72;4955340;29;19956;-73
2022/07/16 07:42:55;;;;;;;;;;;;;;;23.04;36.85;96950.81;4955282;29;19975;-74
2022/07/16 07:45:21;;;;;;;;;;;;;;;23.18;36.69;96942.88;4955474;29;19959;-73
2022/07/16 07:47:47;;;;;;;;;;;;;;;23.27;36.61;96944.63;4955172;29;19967;-73
2022/07/16 07:50:13;;;;;;;;;;;;;;;23.30;36.83;96954.75;4955332;29;19962;-73
2022/07/16 07:52:39;;;;;;;;;;;;;;;23.21;35.79;96945.78;4955474;29;20047;-73
2022/07/16 07:55:06;;;;;;;;;;;;;;;23.21;35.59;96939.63;4955392;29;19956;-73
2022/07/16 07:57:32;;;;;;;;;;;;;;;23.32;36.09;96938.41;4955583;29;19955;-73
2022/07/16 07:59:59;;;;;;;;;;;;;;;23.56;35.76;96941.03;4955212;29;19959;-73
2022/07/16 08:02:25;;;;;;;;;;;;;;;23.70;32.33;96930.38;4953658;29;19967;-74
2022/07/16 08:04:51;;;;;;;;;;;;;;;23.71;33.81;96926.63;4954840;29;19965;-73
2022/07/16 08:07:17;;;;;;;;;;;;;;;23.88;34.98;96942.22;4955112;29;20412;-73
2022/07/16 08:09:43;;;;;;;;;;;;;;;23.99;35.34;96940.97;4954796;29;19966;-74
2022/07/16 08:12:09;;;;;;;;;;;;;;;24.01;33.54;96928.06;4954903;29;19965;-73
2022/07/16 08:14:35;;;;;;;;;;;;;;;24.08;34.19;96941.88;4954760;29;19969;-74
2022/07/16 08:17:02;;;;;;;;;;;;;;;24.13;31.72;96927.63;4954954;29;19969;-74
2022/07/16 08:19:28;;;;;;;;;;;;;;;24.20;33.78;96935.28;4954610;28;19965;-74
2022/07/16 08:21:54;;;;;;;;;;;;;;;24.30;32.48;96927.06;4956648;28;20005;-74
2022/07/16 08:27:04;;;;;;;;;;;;;;;24.30;33.59;96935.09;4958586;29;20409;-73
2022/07/16 08:29:30;;;;;;;;;;;;;;;24.42;32.45;96923.88;4958127;29;19953;-73
2022/07/16 08:31:56;;;;;;;;;;;;;;;24.48;32.36;96938.78;4958001;29;20056;-74
2022/07/16 08:34:25;;;;;;;;;;;;;;;24.55;33.77;96939.25;4958544;29;19969;-73
2022/07/16 08:36:51;;;;;;;;;;;;;;;24.59;32.82;96934.06;4958471;29;20115;-73
2022/07/16 08:39:18;;;;;;;;;;;;;;;24.66;33.46;96934.50;4958046;29;19970;-73
2022/07/16 08:41:44;;;;;;;;;;;;;;;24.59;32.31;96928.72;4957876;29;19978;-74
2022/07/16 08:44:13;;;;;;;;;;;;;;;24.38;32.65;96944.34;4958213;29;19968;-74
2022/07/16 08:46:40;;;;;;;;;;;;;;;24.26;31.62;96937.56;4957934;29;20472;-74
2022/07/16 08:49:06;;;;;;;;;;;;;;;24.30;33.84;96949.28;4957825;29;19961;-75
2022/07/16 08:51:37;;;;;;;;;;;;;;;24.36;31.59;96941.16;4958125;29;19968;-74
2022/07/16 08:54:12;;;;;;;;;;;;;;;24.49;33.09;96935.84;4956941;28;19961;-73
2022/07/16 08:56:37;;;;;;;;;;;;;;;24.61;32.52;96939.94;4957621;29;20427;-73
2022/07/16 08:59:05;;;;;;;;;;;;;;;24.65;32.81;96936.38;4958073;29;20041;-73
2022/07/16 09:01:32;;;;;;;;;;;;;;;24.71;33.09;96942.44;4957615;29;19961;-74
2022/07/16 09:04:02;;;;;;;;;;;;;;;24.71;30.75;96929.03;4957400;29;19977;-73
2022/07/16 09:06:28;;;;;;;;;;;;;;;24.73;32.66;96940.25;4957845;29;19956;-73
2022/07/16 09:08:54;;;;;;;;;;;;;;;24.84;32.56;96946.22;4957561;29;19961;-73
2022/07/16 09:11:25;;;;;;;;;;;;;;;24.90;31.37;96936.97;4956284;29;19956;-73
2022/07/16 09:14:20;;;;;;;;;;;;;;;24.80;31.54;96929.13;4958037;29;19968;-74
2022/07/16 09:16:50;;;;;;;;;;;;;;;24.76;32.15;96942.34;4930474;29;19959;-73
2022/07/16 09:19:21;;;;;;;;;;;;;;;24.63;31.21;96941.25;4957029;29;19969;-74
2022/07/16 09:22:06;;;;;;;;;;;;;;;24.61;32.46;96943.44;4957942;29;19986;-73
2022/07/16 09:24:35;;;;;;;;;;;;;;;24.73;32.55;96942.13;4941808;29;19973;-73
2022/07/16 09:27:01;;;;;;;;;;;;;;;24.73;32.30;96937.56;4957583;29;19961;-73
2022/07/16 09:29:27;;;;;;;;;;;;;;;24.71;31.86;96940.56;4957444;29;19965;-73
2022/07/16 09:31:54;;;;;;;;;;;;;;;24.71;32.09;96945.13;4957149;29;19969;-74
2022/07/16 09:34:20;;;;;;;;;;;;;;;24.70;32.58;96952.38;4955857;28;19955;-73
2022/07/16 09:36:57;;;;;;;;;;;;;;;24.62;31.83;96939.66;4957538;29;20333;-73
2022/07/16 09:39:23;;;;;;;;;;;;;;;24.64;32.83;96945.50;4957140;29;19958;-74
2022/07/16 09:41:49;;;;;;;;;;;;;;;24.67;31.93;96938.75;4956888;29;19962;-74
2022/07/16 09:44:26;;;;;;;;;;;;;;;24.73;30.58;96934.88;4955745;29;20069;-74
2022/07/16 09:46:56;;;;;;;;;;;;;;;24.63;31.60;96935.88;4956944;29;19955;-74
2022/07/16 09:49:22;;;;;;;;;;;;;;;24.75;31.80;96948.78;4956952;29;19960;-74
2022/07/16 09:51:48;;;;;;;;;;;;;;;24.86;31.63;96950.22;4956645;29;19973;-74
2022/07/16 09:54:26;;;;;;;;;;;;;;;25.00;31.77;96946.72;4956962;29;19967;-74
2022/07/16 09:57:05;;;;;;;;;;;;;;;25.07;31.09;96939.88;4956993;29;19963;-73
2022/07/16 09:59:31;;;;;;;;;;;;;;;25.16;31.55;96941.81;4956483;29;19960;-73
2022/07/16 10:01:57;;;;;;;;;;;;;;;25.20;30.91;96951.72;4956879;29;19975;-73
2022/07/16 10:04:24;;;;;;;;;;;;;;;25.22;30.14;96948.72;4956604;29;20351;-74
2022/07/16 10:06:49;;;;;;;;;;;;;;;25.22;31.25;96956.75;4956384;29;19961;-73
2022/07/16 10:09:16;;;;;;;;;;;;;;;25.24;31.50;96957.25;4956335;29;20327;-73
2022/07/16 10:11:43;;;;;;;;;;;;;;;25.20;31.10;96950.88;4956444;29;19960;-73
2022/07/16 10:14:09;;;;;;;;;;;;;;;25.19;30.85;96951.97;4956334;29;20421;-73
2022/07/16 10:16:42;;;;;;;;;;;;;;;25.27;30.79;96949.41;4956372;29;19967;-73
2022/07/16 10:19:09;;;;;;;;;;;;;;;25.46;31.06;96956.53;4956474;29;19963;-73
2022/07/16 10:21:35;;;;;;;;;;;;;;;25.52;30.72;96945.38;4956025;29;19988;-74
2022/07/16 10:24:15;;;;;;;;;;;;;;;25.60;31.26;96945.75;4956120;29;19996;-73
2022/07/16 10:26:41;;;;;;;;;;;;;;;25.68;29.78;96932.41;4956444;29;20412;-73
2022/07/16 10:29:07;;;;;;;;;;;;;;;25.74;29.76;96930.38;4956266;29;19965;-73
2022/07/16 10:31:33;;;;;;;;;;;;;;;25.85;30.97;96941.69;4955876;29;20442;-74
2022/07/16 10:34:25;;;;;;;;;;;;;;;25.97;29.80;96939.28;4956256;29;20032;-73
2022/07/16 10:36:53;;;;;;;;;;;;;;;25.95;29.20;96929.94;4952568;29;19980;-74
2022/07/16 10:39:19;;;;;;;;;;;;;;;25.92;30.46;96931.34;4954920;29;19963;-73
2022/07/16 10:41:51;;;;;;;;;;;;;;;25.96;29.86;96932.34;4955820;29;19955;-73
2022/07/16 10:44:18;;;;;;;;;;;;;;;25.95;30.14;96933.41;4955295;28;19976;-73
2022/07/16 10:46:52;;;;;;;;;;;;;;;26.01;30.16;96942.16;4955898;29;19962;-73
2022/07/16 10:49:18;;;;;;;;;;;;;;;26.04;29.50;96934.28;4955535;29;20382;-73
2022/07/16 10:51:59;;;;;;;;;;;;;;;26.14;30.18;96935.91;4956005;29;20349;-73
2022/07/16 10:54:29;;;;;;;;;;;;;;;26.24;29.32;96932.97;4955639;29;19954;-73
2022/07/16 10:56:56;;;;;;;;;;;;;;;26.36;29.77;96937.00;4955744;29;19968;-73
2022/07/16 10:59:27;;;;;;;;;;;;;;;26.41;29.10;96936.88;4955791;29;19981;-74
2022/07/16 11:01:54;;;;;;;;;;;;;;;26.48;28.24;96923.75;4955417;29;19953;-74
2022/07/16 11:04:31;;;;;;;;;;;;;;;26.55;29.03;96936.78;4955696;29;19979;-73
2022/07/16 11:06:58;;;;;;;;;;;;;;;26.66;29.25;96933.53;4955655;29;20320;-73
2022/07/16 11:09:28;;;;;;;;;;;;;;;26.74;29.20;96934.69;4955665;29;19965;-74
2022/07/16 11:11:55;;;;;;;;;;;;;;;26.72;28.35;96931.50;4942475;29;19970;-74
2022/07/16 11:14:27;;;;;;;;;;;;;;;26.68;29.33;96942.09;4955398;29;19968;-74
2022/07/16 11:16:53;;;;;;;;;;;;;;;26.64;28.58;96934.94;4955578;29;19957;-73
2022/07/16 11:19:19;;;;;;;;;;;;;;;26.62;28.32;96947.91;4956000;29;20056;-73
2022/07/16 11:21:52;;;;;;;;;;;;;;;26.46;26.29;96942.13;4955682;29;20458;-73
2022/07/16 11:24:17;;;;;;;;;;;;;;;26.35;28.54;96944.25;4955541;29;19981;-73
2022/07/16 11:26:43;;;;;;;;;;;;;;;26.41;28.90;96944.94;4955792;29;20004;-73
2022/07/16 11:29:09;;;;;;;;;;;;;;;26.54;28.35;96938.66;4954222;29;20468;-73
2022/07/16 11:31:36;;;;;;;;;;;;;;;26.62;29.26;96943.31;4955603;28;19959;-74
2022/07/16 11:34:06;;;;;;;;;;;;;;;26.81;29.32;96953.06;4955252;29;19967;-74
2022/07/16 11:36:42;;;;;;;;;;;;;;;26.80;26.48;96938.81;4954337;29;19958;-74
2022/07/16 11:39:10;;;;;;;;;;;;;;;26.87;27.47;96939.16;4955430;29;19963;-74
2022/07/16 11:41:37;;;;;;;;;;;;;;;26.91;28.53;96948.19;4955611;29;19975;-74
2022/07/16 11:44:10;;;;;;;;;;;;;;;27.07;28.47;96945.09;4955198;29;19981;-74
2022/07/16 11:46:42;;;;;;;;;;;;;;;27.08;26.01;96938.59;4955330;29;19971;-73
2022/07/16 11:49:07;;;;;;;;;;;;;;;27.11;27.36;96943.38;4955174;28;19975;-74
2022/07/16 11:51:37;;;;;;;;;;;;;;;27.24;28.32;96947.06;4954958;29;19959;-74
2022/07/16 11:54:03;;;;;;;;;;;;;;;27.12;26.86;96943.03;4955267;29;19962;-73
2022/07/16 11:56:33;;;;;;;;;;;;;;;27.14;26.15;96943.50;4955666;28;19989;-73
2022/07/16 11:58:59;;;;;;;;;;;;;;;27.29;28.06;96947.69;4957892;29;19964;-75
2022/07/16 12:01:25;;;;;;;;;;;;;;;27.43;28.12;96946.78;4959035;29;19975;-74
2022/07/16 12:03:52;;;;;;;;;;;;;;;27.60;27.08;96940.63;4958938;29;19986;-74
2022/07/16 12:06:18;;;;;;;;;;;;;;;27.68;27.74;96947.91;4958738;29;19968;-74
2022/07/16 12:08:53;;;;;;;;;;;;;;;27.70;27.00;96940.31;4958852;29;19961;-76
2022/07/16 12:11:19;;;;;;;;;;;;;;;27.21;25.33;96936.88;4944630;29;19956;-74
2022/07/16 12:13:54;;;;;;;;;;;;;;;27.06;27.23;96946.19;4957600;29;19962;-74
2022/07/16 12:16:21;;;;;;;;;;;;;;;26.92;27.06;96954.38;4958692;29;19959;-74
2022/07/16 12:19:03;;;;;;;;;;;;;;;26.90;27.42;96948.53;4958780;29;19959;-74
2022/07/16 12:21:30;;;;;;;;;;;;;;;27.03;27.81;96960.28;4958491;29;19997;-74
2022/07/16 12:23:56;;;;;;;;;;;;;;;27.25;27.29;96962.09;4958652;29;20451;-74
2022/07/16 12:26:48;;;;;;;;;;;;;;;27.35;26.73;96950.25;4958433;29;19961;-74
2022/07/16 12:29:15;;;;;;;;;;;;;;;27.47;27.73;96953.13;4955502;28;19950;-74
2022/07/16 12:31:41;;;;;;;;;;;;;;;27.56;26.83;96947.75;4959010;29;19962;-74
2022/07/16 12:34:07;;;;;;;;;;;;;;;27.63;27.02;96954.22;4958484;29;20496;-74
2022/07/16 12:36:34;;;;;;;;;;;;;;;27.63;26.71;96943.44;4958348;29;19956;-74
2022/07/16 12:39:04;;;;;;;;;;;;;;;27.55;24.78;96944.25;4958557;29;20325;-74
2022/07/16 12:41:33;;;;;;;;;;;;;;;27.10;25.04;96926.41;4958316;29;20402;-74
2022/07/16 12:44:00;;;;;;;;;;;;;;;27.06;27.56;96948.88;4958142;29;20340;-74
2022/07/16 12:46:34;;;;;;;;;;;;;;;27.22;26.73;96944.69;4958244;29;19961;-74
2022/07/16 12:49:03;;;;;;;;;;;;;;;27.29;27.32;96945.00;4958453;29;19966;-74
2022/07/16 12:51:31;;;;;;;;;;;;;;;27.31;26.67;96950.06;4957983;29;19981;-74
2022/07/16 12:53:58;;;;;;;;;;;;;;;27.32;26.49;96954.38;4958311;29;20437;-74
2022/07/16 12:59:09;;;;;;;;;;;;;;;27.40;27.24;96961.66;4957941;29;19963;-74